sensor_id;sensor_type;location;lat;lon;timestamp;P1;durP1;ratioP1;P2;durP2;ratioP2
73879;SDS011;62211;42.986;23.256;2022-10-30T00:01:58;11.30;;;7.43;;
73879;SDS011;62211;42.986;23.256;2022-10-30T00:04:23;12.68;;;8.05;;
73879;SDS011;62211;42.986;23.256;2022-10-30T00:06:48;11.48;;;7.60;;
73879;SDS011;62211;42.986;23.256;2022-10-30T00:09:14;12.10;;;7.50;;
73879;SDS011;62211;42.986;23.256;2022-10-30T00:11:39;12.23;;;8.13;;
73879;SDS011;62211;42.986;23.256;2022-10-30T00:14:05;11.18;;;7.93;;
73879;SDS011;62211;42.986;23.256;2022-10-30T00:16:31;15.75;;;8.45;;
73879;SDS011;62211;42.986;23.256;2022-10-30T00:18:56;11.55;;;8.20;;
73879;SDS011;62211;42.986;23.256;2022-10-30T00:21:21;10.07;;;8.63;;
73879;SDS011;62211;42.986;23.256;2022-10-30T00:23:47;13.30;;;8.40;;
73879;SDS011;62211;42.986;23.256;2022-10-30T00:26:14;15.48;;;10.65;;
73879;SDS011;62211;42.986;23.256;2022-10-30T00:28:39;13.27;;;9.68;;
73879;SDS011;62211;42.986;23.256;2022-10-30T00:31:05;17.65;;;10.65;;
73879;SDS011;62211;42.986;23.256;2022-10-30T00:33:31;14.80;;;8.73;;
73879;SDS011;62211;42.986;23.256;2022-10-30T00:35:56;13.00;;;8.65;;
73879;SDS011;62211;42.986;23.256;2022-10-30T00:38:22;12.27;;;7.88;;
73879;SDS011;62211;42.986;23.256;2022-10-30T00:40:47;10.93;;;8.50;;
73879;SDS011;62211;42.986;23.256;2022-10-30T00:43:30;13.55;;;7.70;;
73879;SDS011;62211;42.986;23.256;2022-10-30T00:45:59;9.77;;;7.32;;
73879;SDS011;62211;42.986;23.256;2022-10-30T00:48:30;11.75;;;8.13;;
73879;SDS011;62211;42.986;23.256;2022-10-30T00:50:56;14.07;;;9.23;;
73879;SDS011;62211;42.986;23.256;2022-10-30T00:53:23;10.30;;;8.70;;
73879;SDS011;62211;42.986;23.256;2022-10-30T00:55:51;13.20;;;8.95;;
73879;SDS011;62211;42.986;23.256;2022-10-30T00:58:20;11.35;;;8.32;;
73879;SDS011;62211;42.986;23.256;2022-10-30T01:00:53;13.57;;;8.60;;
73879;SDS011;62211;42.986;23.256;2022-10-30T01:03:20;10.25;;;7.72;;
73879;SDS011;62211;42.986;23.256;2022-10-30T01:05:46;13.27;;;7.07;;
73879;SDS011;62211;42.986;23.256;2022-10-30T01:08:13;9.82;;;7.90;;
73879;SDS011;62211;42.986;23.256;2022-10-30T01:10:39;11.07;;;9.00;;
73879;SDS011;62211;42.986;23.256;2022-10-30T01:13:04;20.70;;;13.98;;
73879;SDS011;62211;42.986;23.256;2022-10-30T01:15:34;16.45;;;12.43;;
73879;SDS011;62211;42.986;23.256;2022-10-30T01:28:37;14.77;;;11.25;;
73879;SDS011;62211;42.986;23.256;2022-10-30T01:36:47;11.57;;;8.25;;
73879;SDS011;62211;42.986;23.256;2022-10-30T01:39:17;10.10;;;7.13;;
73879;SDS011;62211;42.986;23.256;2022-10-30T01:41:45;11.20;;;7.65;;
73879;SDS011;62211;42.986;23.256;2022-10-30T01:44:29;14.25;;;8.00;;
73879;SDS011;62211;42.986;23.256;2022-10-30T01:47:08;14.95;;;7.65;;
73879;SDS011;62211;42.986;23.256;2022-10-30T02:00:29;11.68;;;7.22;;
73879;SDS011;62211;42.986;23.256;2022-10-30T02:02:54;10.65;;;7.88;;
73879;SDS011;62211;42.986;23.256;2022-10-30T02:08:18;10.35;;;7.50;;
73879;SDS011;62211;42.986;23.256;2022-10-30T02:10:45;14.10;;;7.97;;
73879;SDS011;62211;42.986;23.256;2022-10-30T02:13:12;9.90;;;7.10;;
73879;SDS011;62211;42.986;23.256;2022-10-30T02:15:38;10.45;;;7.85;;
73879;SDS011;62211;42.986;23.256;2022-10-30T02:18:03;11.07;;;8.07;;
73879;SDS011;62211;42.986;23.256;2022-10-30T02:20:29;12.90;;;7.15;;
73879;SDS011;62211;42.986;23.256;2022-10-30T02:22:55;11.23;;;8.30;;
73879;SDS011;62211;42.986;23.256;2022-10-30T02:25:20;13.73;;;7.93;;
73879;SDS011;62211;42.986;23.256;2022-10-30T02:27:46;8.90;;;7.47;;
73879;SDS011;62211;42.986;23.256;2022-10-30T02:30:11;13.07;;;7.50;;
73879;SDS011;62211;42.986;23.256;2022-10-30T02:32:37;12.70;;;7.93;;
73879;SDS011;62211;42.986;23.256;2022-10-30T02:35:02;11.45;;;7.57;;
73879;SDS011;62211;42.986;23.256;2022-10-30T02:37:28;11.57;;;7.80;;
73879;SDS011;62211;42.986;23.256;2022-10-30T02:39:54;15.23;;;7.45;;
73879;SDS011;62211;42.986;23.256;2022-10-30T02:42:20;11.40;;;7.05;;
73879;SDS011;62211;42.986;23.256;2022-10-30T02:44:47;8.50;;;7.47;;
73879;SDS011;62211;42.986;23.256;2022-10-30T02:47:12;13.70;;;8.15;;
73879;SDS011;62211;42.986;23.256;2022-10-30T02:49:38;11.27;;;8.07;;
73879;SDS011;62211;42.986;23.256;2022-10-30T02:52:05;10.95;;;7.00;;
73879;SDS011;62211;42.986;23.256;2022-10-30T02:54:32;8.75;;;7.22;;
73879;SDS011;62211;42.986;23.256;2022-10-30T02:56:58;9.60;;;6.57;;
73879;SDS011;62211;42.986;23.256;2022-10-30T02:59:23;9.90;;;7.25;;
73879;SDS011;62211;42.986;23.256;2022-10-30T03:01:48;11.35;;;6.07;;
73879;SDS011;62211;42.986;23.256;2022-10-30T03:04:14;13.32;;;8.05;;
73879;SDS011;62211;42.986;23.256;2022-10-30T03:06:39;11.70;;;6.90;;
73879;SDS011;62211;42.986;23.256;2022-10-30T03:09:05;11.18;;;7.38;;
73879;SDS011;62211;42.986;23.256;2022-10-30T03:11:32;11.43;;;8.00;;
73879;SDS011;62211;42.986;23.256;2022-10-30T03:13:58;11.45;;;6.55;;
73879;SDS011;62211;42.986;23.256;2022-10-30T03:16:24;10.32;;;6.72;;
73879;SDS011;62211;42.986;23.256;2022-10-30T03:18:50;8.45;;;6.40;;
73879;SDS011;62211;42.986;23.256;2022-10-30T03:21:18;11.55;;;7.60;;
73879;SDS011;62211;42.986;23.256;2022-10-30T03:23:44;12.30;;;6.88;;
73879;SDS011;62211;42.986;23.256;2022-10-30T03:26:10;7.93;;;7.03;;
73879;SDS011;62211;42.986;23.256;2022-10-30T03:28:36;10.10;;;7.00;;
73879;SDS011;62211;42.986;23.256;2022-10-30T03:31:02;7.63;;;6.80;;
73879;SDS011;62211;42.986;23.256;2022-10-30T03:33:30;10.77;;;7.32;;
73879;SDS011;62211;42.986;23.256;2022-10-30T03:35:56;12.68;;;7.30;;
73879;SDS011;62211;42.986;23.256;2022-10-30T03:38:21;7.53;;;6.15;;
73879;SDS011;62211;42.986;23.256;2022-10-30T03:40:46;8.80;;;6.55;;
73879;SDS011;62211;42.986;23.256;2022-10-30T03:43:12;12.20;;;7.47;;
73879;SDS011;62211;42.986;23.256;2022-10-30T03:45:37;8.55;;;7.22;;
73879;SDS011;62211;42.986;23.256;2022-10-30T03:48:04;9.13;;;6.60;;
73879;SDS011;62211;42.986;23.256;2022-10-30T03:50:30;8.98;;;6.93;;
73879;SDS011;62211;42.986;23.256;2022-10-30T03:52:55;12.07;;;7.18;;
73879;SDS011;62211;42.986;23.256;2022-10-30T03:55:22;8.38;;;6.15;;
73879;SDS011;62211;42.986;23.256;2022-10-30T03:57:47;10.55;;;6.93;;
73879;SDS011;62211;42.986;23.256;2022-10-30T04:00:13;10.07;;;7.68;;
73879;SDS011;62211;42.986;23.256;2022-10-30T04:02:43;11.52;;;7.78;;
73879;SDS011;62211;42.986;23.256;2022-10-30T04:05:12;9.43;;;7.22;;
73879;SDS011;62211;42.986;23.256;2022-10-30T04:07:41;13.52;;;8.32;;
73879;SDS011;62211;42.986;23.256;2022-10-30T04:10:07;13.77;;;7.03;;
73879;SDS011;62211;42.986;23.256;2022-10-30T04:12:33;11.02;;;7.05;;
73879;SDS011;62211;42.986;23.256;2022-10-30T04:14:58;8.10;;;5.75;;
73879;SDS011;62211;42.986;23.256;2022-10-30T04:17:23;13.25;;;7.30;;
73879;SDS011;62211;42.986;23.256;2022-10-30T04:19:49;8.48;;;6.95;;
73879;SDS011;62211;42.986;23.256;2022-10-30T04:22:14;10.40;;;6.55;;
73879;SDS011;62211;42.986;23.256;2022-10-30T04:24:40;8.85;;;6.75;;
73879;SDS011;62211;42.986;23.256;2022-10-30T04:27:05;13.45;;;7.43;;
73879;SDS011;62211;42.986;23.256;2022-10-30T04:29:31;10.60;;;7.30;;
73879;SDS011;62211;42.986;23.256;2022-10-30T04:31:56;12.15;;;6.20;;
73879;SDS011;62211;42.986;23.256;2022-10-30T04:34:22;12.40;;;6.75;;
73879;SDS011;62211;42.986;23.256;2022-10-30T04:36:47;10.02;;;6.72;;
73879;SDS011;62211;42.986;23.256;2022-10-30T04:39:12;10.00;;;7.18;;
73879;SDS011;62211;42.986;23.256;2022-10-30T04:41:38;13.73;;;6.82;;
73879;SDS011;62211;42.986;23.256;2022-10-30T04:44:03;10.52;;;7.30;;
73879;SDS011;62211;42.986;23.256;2022-10-30T04:46:30;11.82;;;7.60;;
73879;SDS011;62211;42.986;23.256;2022-10-30T04:48:56;10.27;;;6.38;;
73879;SDS011;62211;42.986;23.256;2022-10-30T04:51:21;9.77;;;7.28;;
73879;SDS011;62211;42.986;23.256;2022-10-30T04:53:47;16.23;;;7.20;;
73879;SDS011;62211;42.986;23.256;2022-10-30T04:56:13;11.52;;;7.55;;
73879;SDS011;62211;42.986;23.256;2022-10-30T04:58:39;13.80;;;7.55;;
73879;SDS011;62211;42.986;23.256;2022-10-30T05:01:05;9.40;;;7.05;;
73879;SDS011;62211;42.986;23.256;2022-10-30T05:03:31;9.68;;;6.78;;
73879;SDS011;62211;42.986;23.256;2022-10-30T05:06:01;8.93;;;6.88;;
73879;SDS011;62211;42.986;23.256;2022-10-30T05:08:31;8.75;;;7.43;;
73879;SDS011;62211;42.986;23.256;2022-10-30T05:10:56;14.13;;;6.88;;
73879;SDS011;62211;42.986;23.256;2022-10-30T05:13:22;11.85;;;6.85;;
73879;SDS011;62211;42.986;23.256;2022-10-30T05:15:48;10.73;;;7.60;;
73879;SDS011;62211;42.986;23.256;2022-10-30T05:18:13;9.07;;;6.97;;
73879;SDS011;62211;42.986;23.256;2022-10-30T05:20:39;8.40;;;6.65;;
73879;SDS011;62211;42.986;23.256;2022-10-30T05:23:04;11.48;;;7.35;;
73879;SDS011;62211;42.986;23.256;2022-10-30T05:25:30;11.73;;;7.90;;
73879;SDS011;62211;42.986;23.256;2022-10-30T05:28:00;8.15;;;6.57;;
73879;SDS011;62211;42.986;23.256;2022-10-30T05:30:27;10.65;;;7.28;;
73879;SDS011;62211;42.986;23.256;2022-10-30T05:32:59;11.05;;;7.15;;
73879;SDS011;62211;42.986;23.256;2022-10-30T05:35:29;10.40;;;7.03;;
73879;SDS011;62211;42.986;23.256;2022-10-30T05:37:59;12.57;;;8.45;;
73879;SDS011;62211;42.986;23.256;2022-10-30T05:40:25;10.13;;;7.28;;
73879;SDS011;62211;42.986;23.256;2022-10-30T05:42:51;10.05;;;7.13;;
73879;SDS011;62211;42.986;23.256;2022-10-30T05:45:16;10.73;;;7.47;;
73879;SDS011;62211;42.986;23.256;2022-10-30T05:47:42;20.40;;;10.35;;
73879;SDS011;62211;42.986;23.256;2022-10-30T05:50:08;17.58;;;11.40;;
73879;SDS011;62211;42.986;23.256;2022-10-30T05:52:36;18.02;;;11.38;;
73879;SDS011;62211;42.986;23.256;2022-10-30T05:55:01;19.50;;;10.80;;
73879;SDS011;62211;42.986;23.256;2022-10-30T05:57:27;17.38;;;9.25;;
73879;SDS011;62211;42.986;23.256;2022-10-30T05:59:53;15.57;;;10.70;;
73879;SDS011;62211;42.986;23.256;2022-10-30T06:02:19;19.75;;;10.85;;
73879;SDS011;62211;42.986;23.256;2022-10-30T06:04:45;19.48;;;10.73;;
73879;SDS011;62211;42.986;23.256;2022-10-30T06:07:10;17.58;;;12.15;;
73879;SDS011;62211;42.986;23.256;2022-10-30T06:09:36;17.60;;;10.68;;
73879;SDS011;62211;42.986;23.256;2022-10-30T06:12:01;19.00;;;10.93;;
73879;SDS011;62211;42.986;23.256;2022-10-30T06:14:27;18.95;;;11.77;;
73879;SDS011;62211;42.986;23.256;2022-10-30T06:16:52;20.27;;;12.27;;
73879;SDS011;62211;42.986;23.256;2022-10-30T06:19:17;17.52;;;11.75;;
73879;SDS011;62211;42.986;23.256;2022-10-30T06:21:43;16.67;;;11.98;;
73879;SDS011;62211;42.986;23.256;2022-10-30T06:24:08;15.60;;;11.27;;
73879;SDS011;62211;42.986;23.256;2022-10-30T06:26:34;17.42;;;12.43;;
73879;SDS011;62211;42.986;23.256;2022-10-30T06:28:59;24.98;;;13.32;;
73879;SDS011;62211;42.986;23.256;2022-10-30T06:31:25;19.52;;;12.13;;
73879;SDS011;62211;42.986;23.256;2022-10-30T06:33:50;17.80;;;11.77;;
73879;SDS011;62211;42.986;23.256;2022-10-30T06:36:15;18.50;;;11.63;;
73879;SDS011;62211;42.986;23.256;2022-10-30T06:38:41;18.52;;;10.98;;
73879;SDS011;62211;42.986;23.256;2022-10-30T06:41:07;15.57;;;10.65;;
73879;SDS011;62211;42.986;23.256;2022-10-30T06:43:33;14.02;;;10.25;;
73879;SDS011;62211;42.986;23.256;2022-10-30T06:45:58;14.30;;;9.98;;
73879;SDS011;62211;42.986;23.256;2022-10-30T06:48:24;21.85;;;11.02;;
73879;SDS011;62211;42.986;23.256;2022-10-30T06:50:56;13.90;;;9.35;;
73879;SDS011;62211;42.986;23.256;2022-10-30T06:53:23;16.80;;;10.35;;
73879;SDS011;62211;42.986;23.256;2022-10-30T06:55:55;17.92;;;11.07;;
73879;SDS011;62211;42.986;23.256;2022-10-30T06:58:22;14.80;;;10.05;;
73879;SDS011;62211;42.986;23.256;2022-10-30T07:00:47;15.90;;;11.65;;
73879;SDS011;62211;42.986;23.256;2022-10-30T07:03:13;14.93;;;9.95;;
73879;SDS011;62211;42.986;23.256;2022-10-30T07:05:38;19.77;;;10.30;;
73879;SDS011;62211;42.986;23.256;2022-10-30T07:08:04;15.30;;;10.45;;
73879;SDS011;62211;42.986;23.256;2022-10-30T07:10:29;35.75;;;15.05;;
73879;SDS011;62211;42.986;23.256;2022-10-30T07:12:55;14.23;;;9.52;;
73879;SDS011;62211;42.986;23.256;2022-10-30T07:15:21;11.70;;;9.25;;
73879;SDS011;62211;42.986;23.256;2022-10-30T07:17:52;12.98;;;9.65;;
73879;SDS011;62211;42.986;23.256;2022-10-30T07:20:23;13.30;;;9.82;;
73879;SDS011;62211;42.986;23.256;2022-10-30T07:22:50;12.13;;;9.45;;
73879;SDS011;62211;42.986;23.256;2022-10-30T07:25:15;15.38;;;9.45;;
73879;SDS011;62211;42.986;23.256;2022-10-30T07:27:42;15.27;;;9.18;;
73879;SDS011;62211;42.986;23.256;2022-10-30T07:32:40;11.57;;;7.57;;
73879;SDS011;62211;42.986;23.256;2022-10-30T07:35:07;11.23;;;8.23;;
73879;SDS011;62211;42.986;23.256;2022-10-30T07:37:33;11.75;;;9.07;;
73879;SDS011;62211;42.986;23.256;2022-10-30T07:39:59;12.95;;;8.95;;
73879;SDS011;62211;42.986;23.256;2022-10-30T07:42:24;12.43;;;9.50;;
73879;SDS011;62211;42.986;23.256;2022-10-30T07:44:50;10.43;;;8.73;;
73879;SDS011;62211;42.986;23.256;2022-10-30T07:47:15;15.73;;;8.93;;
73879;SDS011;62211;42.986;23.256;2022-10-30T07:49:41;13.93;;;9.40;;
73879;SDS011;62211;42.986;23.256;2022-10-30T07:52:06;14.60;;;8.88;;
73879;SDS011;62211;42.986;23.256;2022-10-30T07:54:31;12.38;;;8.30;;
73879;SDS011;62211;42.986;23.256;2022-10-30T07:56:57;11.48;;;7.85;;
73879;SDS011;62211;42.986;23.256;2022-10-30T07:59:23;10.40;;;7.72;;
73879;SDS011;62211;42.986;23.256;2022-10-30T08:01:49;10.35;;;8.65;;
73879;SDS011;62211;42.986;23.256;2022-10-30T08:04:14;12.07;;;8.32;;
73879;SDS011;62211;42.986;23.256;2022-10-30T08:06:40;10.85;;;7.60;;
73879;SDS011;62211;42.986;23.256;2022-10-30T08:09:05;8.15;;;6.90;;
73879;SDS011;62211;42.986;23.256;2022-10-30T08:11:30;11.35;;;7.57;;
73879;SDS011;62211;42.986;23.256;2022-10-30T08:13:56;9.00;;;7.07;;
73879;SDS011;62211;42.986;23.256;2022-10-30T08:16:21;9.30;;;6.90;;
73879;SDS011;62211;42.986;23.256;2022-10-30T08:18:47;11.07;;;6.90;;
73879;SDS011;62211;42.986;23.256;2022-10-30T08:21:12;11.50;;;7.38;;
73879;SDS011;62211;42.986;23.256;2022-10-30T08:23:38;9.45;;;6.63;;
73879;SDS011;62211;42.986;23.256;2022-10-30T08:26:03;8.80;;;6.20;;
73879;SDS011;62211;42.986;23.256;2022-10-30T08:28:29;10.20;;;6.82;;
73879;SDS011;62211;42.986;23.256;2022-10-30T08:30:55;9.82;;;6.03;;
73879;SDS011;62211;42.986;23.256;2022-10-30T08:33:22;8.52;;;6.40;;
73879;SDS011;62211;42.986;23.256;2022-10-30T08:35:48;9.65;;;6.22;;
73879;SDS011;62211;42.986;23.256;2022-10-30T08:38:17;8.52;;;5.97;;
73879;SDS011;62211;42.986;23.256;2022-10-30T08:40:43;6.55;;;5.95;;
73879;SDS011;62211;42.986;23.256;2022-10-30T08:43:09;9.10;;;5.97;;
73879;SDS011;62211;42.986;23.256;2022-10-30T08:45:35;6.93;;;5.65;;
73879;SDS011;62211;42.986;23.256;2022-10-30T08:48:01;7.20;;;5.10;;
73879;SDS011;62211;42.986;23.256;2022-10-30T08:50:28;9.63;;;5.75;;
73879;SDS011;62211;42.986;23.256;2022-10-30T08:52:54;9.88;;;4.75;;
73879;SDS011;62211;42.986;23.256;2022-10-30T08:55:20;6.78;;;4.88;;
73879;SDS011;62211;42.986;23.256;2022-10-30T08:57:46;9.15;;;4.82;;
73879;SDS011;62211;42.986;23.256;2022-10-30T09:00:11;12.75;;;4.45;;
73879;SDS011;62211;42.986;23.256;2022-10-30T09:02:37;7.00;;;4.68;;
73879;SDS011;62211;42.986;23.256;2022-10-30T09:05:05;6.47;;;4.82;;
73879;SDS011;62211;42.986;23.256;2022-10-30T09:07:32;5.25;;;4.35;;
73879;SDS011;62211;42.986;23.256;2022-10-30T09:09:57;4.30;;;3.90;;
73879;SDS011;62211;42.986;23.256;2022-10-30T09:12:23;6.35;;;4.15;;
73879;SDS011;62211;42.986;23.256;2022-10-30T09:14:48;4.90;;;4.07;;
73879;SDS011;62211;42.986;23.256;2022-10-30T09:17:13;6.28;;;3.65;;
73879;SDS011;62211;42.986;23.256;2022-10-30T09:19:39;4.80;;;3.67;;
73879;SDS011;62211;42.986;23.256;2022-10-30T09:22:05;5.70;;;3.55;;
73879;SDS011;62211;42.986;23.256;2022-10-30T09:24:30;4.55;;;3.80;;
73879;SDS011;62211;42.986;23.256;2022-10-30T09:26:55;4.05;;;3.35;;
73879;SDS011;62211;42.986;23.256;2022-10-30T09:29:21;3.38;;;3.05;;
73879;SDS011;62211;42.986;23.256;2022-10-30T09:31:46;6.22;;;3.55;;
73879;SDS011;62211;42.986;23.256;2022-10-30T09:34:12;4.22;;;3.35;;
73879;SDS011;62211;42.986;23.256;2022-10-30T09:36:37;5.68;;;3.45;;
73879;SDS011;62211;42.986;23.256;2022-10-30T09:39:03;7.40;;;3.22;;
73879;SDS011;62211;42.986;23.256;2022-10-30T10:00:12;3.80;;;2.83;;
73879;SDS011;62211;42.986;23.256;2022-10-30T10:05:57;8.18;;;2.90;;
73879;SDS011;62211;42.986;23.256;2022-10-30T10:11:08;2.75;;;2.55;;
73879;SDS011;62211;42.986;23.256;2022-10-30T10:16:18;3.17;;;2.88;;
73879;SDS011;62211;42.986;23.256;2022-10-30T10:18:46;3.25;;;2.95;;
73879;SDS011;62211;42.986;23.256;2022-10-30T10:21:31;3.13;;;2.80;;
73879;SDS011;62211;42.986;23.256;2022-10-30T10:23:59;3.22;;;2.20;;
73879;SDS011;62211;42.986;23.256;2022-10-30T10:26:28;2.78;;;2.58;;
73879;SDS011;62211;42.986;23.256;2022-10-30T10:29:21;3.10;;;2.80;;
73879;SDS011;62211;42.986;23.256;2022-10-30T10:42:25;4.50;;;2.92;;
73879;SDS011;62211;42.986;23.256;2022-10-30T10:52:57;4.47;;;2.63;;
73879;SDS011;62211;42.986;23.256;2022-10-30T10:55:32;5.88;;;3.05;;
73879;SDS011;62211;42.986;23.256;2022-10-30T10:58:05;4.20;;;2.80;;
73879;SDS011;62211;42.986;23.256;2022-10-30T11:00:34;3.90;;;2.60;;
73879;SDS011;62211;42.986;23.256;2022-10-30T11:05:52;4.28;;;2.90;;
73879;SDS011;62211;42.986;23.256;2022-10-30T11:08:24;4.63;;;2.60;;
73879;SDS011;62211;42.986;23.256;2022-10-30T11:10:55;3.60;;;2.63;;
73879;SDS011;62211;42.986;23.256;2022-10-30T11:13:24;3.90;;;2.80;;
73879;SDS011;62211;42.986;23.256;2022-10-30T11:18:45;3.20;;;2.15;;
73879;SDS011;62211;42.986;23.256;2022-10-30T11:21:16;3.33;;;2.15;;
73879;SDS011;62211;42.986;23.256;2022-10-30T11:23:44;2.50;;;2.20;;
73879;SDS011;62211;42.986;23.256;2022-10-30T11:26:32;4.10;;;2.25;;
73879;SDS011;62211;42.986;23.256;2022-10-30T11:29:01;5.13;;;2.63;;
73879;SDS011;62211;42.986;23.256;2022-10-30T11:31:34;4.25;;;2.85;;
73879;SDS011;62211;42.986;23.256;2022-10-30T11:34:23;3.97;;;3.25;;
73879;SDS011;62211;42.986;23.256;2022-10-30T11:36:53;4.57;;;3.25;;
73879;SDS011;62211;42.986;23.256;2022-10-30T11:39:20;5.63;;;3.63;;
73879;SDS011;62211;42.986;23.256;2022-10-30T11:41:57;3.10;;;2.80;;
73879;SDS011;62211;42.986;23.256;2022-10-30T11:44:24;5.72;;;3.20;;
73879;SDS011;62211;42.986;23.256;2022-10-30T11:47:01;2.90;;;2.70;;
73879;SDS011;62211;42.986;23.256;2022-10-30T11:51:57;4.10;;;2.78;;
73879;SDS011;62211;42.986;23.256;2022-10-30T11:54:23;5.35;;;2.90;;
73879;SDS011;62211;42.986;23.256;2022-10-30T11:56:49;6.03;;;3.55;;
73879;SDS011;62211;42.986;23.256;2022-10-30T11:59:19;3.83;;;2.30;;
73879;SDS011;62211;42.986;23.256;2022-10-30T12:02:02;4.20;;;2.95;;
73879;SDS011;62211;42.986;23.256;2022-10-30T12:04:43;3.17;;;2.88;;
73879;SDS011;62211;42.986;23.256;2022-10-30T12:09:56;3.40;;;3.10;;
73879;SDS011;62211;42.986;23.256;2022-10-30T12:12:37;4.47;;;3.45;;
73879;SDS011;62211;42.986;23.256;2022-10-30T12:15:17;4.75;;;4.00;;
73879;SDS011;62211;42.986;23.256;2022-10-30T12:17:51;4.85;;;4.10;;
73879;SDS011;62211;42.986;23.256;2022-10-30T12:20:27;6.78;;;4.18;;
73879;SDS011;62211;42.986;23.256;2022-10-30T12:22:53;6.47;;;4.45;;
73879;SDS011;62211;42.986;23.256;2022-10-30T12:25:23;5.85;;;4.38;;
73879;SDS011;62211;42.986;23.256;2022-10-30T12:27:57;4.80;;;4.40;;
73879;SDS011;62211;42.986;23.256;2022-10-30T12:32:55;4.65;;;3.83;;
73879;SDS011;62211;42.986;23.256;2022-10-30T12:38:05;5.72;;;4.68;;
73879;SDS011;62211;42.986;23.256;2022-10-30T12:40:35;4.75;;;4.25;;
73879;SDS011;62211;42.986;23.256;2022-10-30T12:43:10;7.18;;;4.90;;
73879;SDS011;62211;42.986;23.256;2022-10-30T12:45:41;6.25;;;4.43;;
73879;SDS011;62211;42.986;23.256;2022-10-30T12:48:16;4.68;;;4.05;;
73879;SDS011;62211;42.986;23.256;2022-10-30T12:53:44;7.32;;;3.88;;
73879;SDS011;62211;42.986;23.256;2022-10-30T12:56:13;5.40;;;3.95;;
73879;SDS011;62211;42.986;23.256;2022-10-30T12:58:45;5.07;;;4.18;;
73879;SDS011;62211;42.986;23.256;2022-10-30T13:01:24;4.97;;;4.10;;
73879;SDS011;62211;42.986;23.256;2022-10-30T13:04:14;5.38;;;4.00;;
73879;SDS011;62211;42.986;23.256;2022-10-30T13:06:49;3.97;;;3.58;;
73879;SDS011;62211;42.986;23.256;2022-10-30T13:09:20;4.05;;;3.65;;
73879;SDS011;62211;42.986;23.256;2022-10-30T13:17:18;4.75;;;3.92;;
73879;SDS011;62211;42.986;23.256;2022-10-30T13:19:45;5.20;;;3.97;;
73879;SDS011;62211;42.986;23.256;2022-10-30T13:22:22;7.32;;;3.97;;
73879;SDS011;62211;42.986;23.256;2022-10-30T13:30:44;5.82;;;3.53;;
73879;SDS011;62211;42.986;23.256;2022-10-30T13:33:20;6.47;;;4.28;;
73879;SDS011;62211;42.986;23.256;2022-10-30T13:38:24;6.65;;;3.83;;
73879;SDS011;62211;42.986;23.256;2022-10-30T13:49:24;6.40;;;4.00;;
73879;SDS011;62211;42.986;23.256;2022-10-30T13:52:02;6.13;;;4.20;;
73879;SDS011;62211;42.986;23.256;2022-10-30T14:02:46;8.07;;;5.18;;
73879;SDS011;62211;42.986;23.256;2022-10-30T14:05:30;7.82;;;4.70;;
73879;SDS011;62211;42.986;23.256;2022-10-30T14:21:37;6.25;;;4.47;;
73879;SDS011;62211;42.986;23.256;2022-10-30T14:24:20;4.35;;;3.90;;
73879;SDS011;62211;42.986;23.256;2022-10-30T14:32:31;10.65;;;5.15;;
73879;SDS011;62211;42.986;23.256;2022-10-30T14:39:47;7.13;;;4.78;;
73879;SDS011;62211;42.986;23.256;2022-10-30T14:42:24;11.43;;;5.78;;
73879;SDS011;62211;42.986;23.256;2022-10-30T14:56:44;6.40;;;3.78;;
73879;SDS011;62211;42.986;23.256;2022-10-30T15:07:30;7.05;;;3.85;;
73879;SDS011;62211;42.986;23.256;2022-10-30T15:17:51;5.23;;;3.47;;
73879;SDS011;62211;42.986;23.256;2022-10-30T15:20:20;5.53;;;4.38;;
73879;SDS011;62211;42.986;23.256;2022-10-30T15:22:49;6.60;;;3.92;;
73879;SDS011;62211;42.986;23.256;2022-10-30T15:25:18;5.15;;;4.10;;
73879;SDS011;62211;42.986;23.256;2022-10-30T15:27:51;5.53;;;3.80;;
73879;SDS011;62211;42.986;23.256;2022-10-30T15:30:19;4.50;;;4.10;;
73879;SDS011;62211;42.986;23.256;2022-10-30T15:32:47;4.80;;;4.40;;
73879;SDS011;62211;42.986;23.256;2022-10-30T15:35:14;10.88;;;5.10;;
73879;SDS011;62211;42.986;23.256;2022-10-30T15:40:43;14.50;;;6.82;;
73879;SDS011;62211;42.986;23.256;2022-10-30T15:43:12;35.78;;;18.05;;
73879;SDS011;62211;42.986;23.256;2022-10-30T15:45:40;35.17;;;18.38;;
73879;SDS011;62211;42.986;23.256;2022-10-30T15:50:44;11.73;;;7.82;;
73879;SDS011;62211;42.986;23.256;2022-10-30T15:55:43;46.10;;;23.63;;
73879;SDS011;62211;42.986;23.256;2022-10-30T15:58:10;16.52;;;11.65;;
73879;SDS011;62211;42.986;23.256;2022-10-30T16:00:40;24.83;;;15.38;;
73879;SDS011;62211;42.986;23.256;2022-10-30T16:05:37;15.75;;;9.98;;
73879;SDS011;62211;42.986;23.256;2022-10-30T16:08:08;13.77;;;9.80;;
73879;SDS011;62211;42.986;23.256;2022-10-30T16:10:36;23.63;;;13.52;;
73879;SDS011;62211;42.986;23.256;2022-10-30T16:13:10;16.67;;;10.05;;
73879;SDS011;62211;42.986;23.256;2022-10-30T16:15:42;16.77;;;10.50;;
73879;SDS011;62211;42.986;23.256;2022-10-30T16:20:44;14.63;;;9.57;;
73879;SDS011;62211;42.986;23.256;2022-10-30T16:23:11;41.53;;;19.42;;
73879;SDS011;62211;42.986;23.256;2022-10-30T16:25:37;133.00;;;63.42;;
73879;SDS011;62211;42.986;23.256;2022-10-30T16:28:04;109.20;;;54.70;;
73879;SDS011;62211;42.986;23.256;2022-10-30T16:30:30;71.57;;;34.47;;
73879;SDS011;62211;42.986;23.256;2022-10-30T16:32:57;27.73;;;16.65;;
73879;SDS011;62211;42.986;23.256;2022-10-30T16:35:24;37.45;;;17.33;;
73879;SDS011;62211;42.986;23.256;2022-10-30T16:37:50;32.45;;;19.45;;
73879;SDS011;62211;42.986;23.256;2022-10-30T16:40:17;16.48;;;10.73;;
73879;SDS011;62211;42.986;23.256;2022-10-30T16:42:47;24.38;;;13.40;;
73879;SDS011;62211;42.986;23.256;2022-10-30T16:47:46;65.05;;;30.48;;
73879;SDS011;62211;42.986;23.256;2022-10-30T16:50:28;63.63;;;33.42;;
73879;SDS011;62211;42.986;23.256;2022-10-30T16:53:03;100.68;;;47.95;;
73879;SDS011;62211;42.986;23.256;2022-10-30T16:55:29;63.08;;;31.73;;
73879;SDS011;62211;42.986;23.256;2022-10-30T16:57:56;42.03;;;20.67;;
73879;SDS011;62211;42.986;23.256;2022-10-30T17:00:23;34.42;;;20.45;;
73879;SDS011;62211;42.986;23.256;2022-10-30T17:02:50;27.52;;;15.02;;
73879;SDS011;62211;42.986;23.256;2022-10-30T17:10:35;42.05;;;22.35;;
73879;SDS011;62211;42.986;23.256;2022-10-30T17:18:47;33.63;;;19.67;;
73879;SDS011;62211;42.986;23.256;2022-10-30T17:21:13;29.48;;;14.10;;
73879;SDS011;62211;42.986;23.256;2022-10-30T17:23:44;19.20;;;11.55;;
73879;SDS011;62211;42.986;23.256;2022-10-30T17:26:11;21.65;;;12.38;;
73879;SDS011;62211;42.986;23.256;2022-10-30T17:28:37;32.78;;;19.90;;
73879;SDS011;62211;42.986;23.256;2022-10-30T17:33:42;53.75;;;27.05;;
73879;SDS011;62211;42.986;23.256;2022-10-30T17:36:11;29.70;;;17.27;;
73879;SDS011;62211;42.986;23.256;2022-10-30T17:38:37;67.97;;;32.85;;
73879;SDS011;62211;42.986;23.256;2022-10-30T17:41:02;26.38;;;14.32;;
73879;SDS011;62211;42.986;23.256;2022-10-30T17:43:30;49.60;;;24.63;;
73879;SDS011;62211;42.986;23.256;2022-10-30T17:45:57;80.68;;;37.83;;
73879;SDS011;62211;42.986;23.256;2022-10-30T17:48:24;82.18;;;43.42;;
73879;SDS011;62211;42.986;23.256;2022-10-30T17:50:50;55.92;;;28.60;;
73879;SDS011;62211;42.986;23.256;2022-10-30T17:53:17;33.13;;;17.27;;
73879;SDS011;62211;42.986;23.256;2022-10-30T17:55:54;36.95;;;20.45;;
73879;SDS011;62211;42.986;23.256;2022-10-30T17:58:23;11.10;;;8.02;;